sensor_id;sensor_type;location;lat;lon;timestamp;pressure;altitude;pressure_sealevel;temperature;humidity
71299;BME280;59083;47.974;21.722;2023-04-25T00:01:46;99326.00;;;13.13;100.00
71299;BME280;59083;47.974;21.722;2023-04-25T00:04:48;99332.16;;;13.14;100.00
71299;BME280;59083;47.974;21.722;2023-04-25T00:07:50;99329.03;;;13.17;100.00
71299;BME280;59083;47.974;21.722;2023-04-25T00:10:51;99326.34;;;13.17;100.00
71299;BME280;59083;47.974;21.722;2023-04-25T00:13:52;99326.34;;;13.17;100.00
71299;BME280;59083;47.974;21.722;2023-04-25T00:16:54;99326.34;;;13.17;100.00
71299;BME280;59083;47.974;21.722;2023-04-25T00:19:55;99326.34;;;13.17;100.00
71299;BME280;59083;47.974;21.722;2023-04-25T00:22:57;99325.53;;;13.16;100.00
71299;BME280;59083;47.974;21.722;2023-04-25T00:25:58;99321.75;;;13.06;100.00
71299;BME280;59083;47.974;21.722;2023-04-25T00:28:59;99318.97;;;13.01;100.00
71299;BME280;59083;47.974;21.722;2023-04-25T00:32:01;99312.88;;;12.94;100.00
71299;BME280;59083;47.974;21.722;2023-04-25T00:35:03;99308.31;;;12.82;100.00
71299;BME280;59083;47.974;21.722;2023-04-25T00:38:04;99304.97;;;12.75;100.00
71299;BME280;59083;47.974;21.722;2023-04-25T00:41:06;99299.00;;;12.73;100.00
71299;BME280;59083;47.974;21.722;2023-04-25T00:44:09;99302.47;;;12.62;100.00
71299;BME280;59083;47.974;21.722;2023-04-25T00:47:12;99297.56;;;12.59;100.00
71299;BME280;59083;47.974;21.722;2023-04-25T00:50:14;99291.16;;;12.60;100.00
71299;BME280;59083;47.974;21.722;2023-04-25T00:53:15;99299.66;;;12.57;100.00
71299;BME280;59083;47.974;21.722;2023-04-25T00:56:16;99294.31;;;12.57;100.00
71299;BME280;59083;47.974;21.722;2023-04-25T00:59:19;99290.59;;;12.58;100.00
71299;BME280;59083;47.974;21.722;2023-04-25T01:02:21;99288.97;;;12.57;100.00
71299;BME280;59083;47.974;21.722;2023-04-25T01:05:22;99294.75;;;12.54;100.00
71299;BME280;59083;47.974;21.722;2023-04-25T01:08:24;99292.69;;;12.56;100.00
71299;BME280;59083;47.974;21.722;2023-04-25T01:11:29;99287.34;;;12.56;100.00
71299;BME280;59083;47.974;21.722;2023-04-25T01:14:30;99283.63;;;12.57;100.00
71299;BME280;59083;47.974;21.722;2023-04-25T01:17:34;99280.34;;;12.55;100.00
71299;BME280;59083;47.974;21.722;2023-04-25T01:20:37;99277.91;;;12.54;100.00
71299;BME280;59083;47.974;21.722;2023-04-25T01:23:40;99269.66;;;12.55;100.00
71299;BME280;59083;47.974;21.722;2023-04-25T01:26:42;99268.50;;;12.51;100.00
71299;BME280;59083;47.974;21.722;2023-04-25T01:29:51;99277.06;;;12.53;100.00
71299;BME280;59083;47.974;21.722;2023-04-25T01:32:55;99272.34;;;12.55;100.00
71299;BME280;59083;47.974;21.722;2023-04-25T01:35:57;99273.38;;;12.54;100.00
71299;BME280;59083;47.974;21.722;2023-04-25T01:38:58;99272.34;;;12.55;100.00
71299;BME280;59083;47.974;21.722;2023-04-25T01:42:00;99268.50;;;12.51;100.00
71299;BME280;59083;47.974;21.722;2023-04-25T01:45:02;99262.56;;;12.49;100.00
71299;BME280;59083;47.974;21.722;2023-04-25T01:48:03;99265.22;;;12.49;100.00
71299;BME280;59083;47.974;21.722;2023-04-25T01:51:04;99257.69;;;12.46;100.00
71299;BME280;59083;47.974;21.722;2023-04-25T01:54:07;99259.88;;;12.49;100.00
71299;BME280;59083;47.974;21.722;2023-04-25T01:57:08;99258.84;;;12.50;100.00
71299;BME280;59083;47.974;21.722;2023-04-25T02:00:11;99253.84;;;12.54;100.00
71299;BME280;59083;47.974;21.722;2023-04-25T02:03:13;99250.81;;;12.50;100.00
71299;BME280;59083;47.974;21.722;2023-04-25T02:06:14;99248.38;;;12.49;100.00
71299;BME280;59083;47.974;21.722;2023-04-25T02:09:16;99249.06;;;12.44;100.00
71299;BME280;59083;47.974;21.722;2023-04-25T02:12:18;99248.03;;;12.45;100.00
71299;BME280;59083;47.974;21.722;2023-04-25T02:15:22;99237.78;;;12.42;100.00
71299;BME280;59083;47.974;21.722;2023-04-25T02:18:24;99239.41;;;12.43;100.00
71299;BME280;59083;47.974;21.722;2023-04-25T02:21:25;99230.00;;;12.40;100.00
71299;BME280;59083;47.974;21.722;2023-04-25T02:24:27;99232.16;;;12.32;100.00
71299;BME280;59083;47.974;21.722;2023-04-25T02:27:30;99230.81;;;12.41;100.00
71299;BME280;59083;47.974;21.722;2023-04-25T02:30:32;99228.72;;;12.43;100.00
71299;BME280;59083;47.974;21.722;2023-04-25T02:33:33;99227.09;;;12.42;100.00
71299;BME280;59083;47.974;21.722;2023-04-25T02:36:34;99223.37;;;12.43;100.00
71299;BME280;59083;47.974;21.722;2023-04-25T02:39:36;99229.19;;;12.40;100.00
71299;BME280;59083;47.974;21.722;2023-04-25T02:42:37;99224.28;;;12.37;100.00
71299;BME280;59083;47.974;21.722;2023-04-25T02:45:38;99226.94;;;12.37;100.00
71299;BME280;59083;47.974;21.722;2023-04-25T02:48:40;99225.22;;;12.42;100.00
71299;BME280;59083;47.974;21.722;2023-04-25T02:51:41;99223.84;;;12.40;100.00
71299;BME280;59083;47.974;21.722;2023-04-25T02:54:43;99215.69;;;12.35;100.00
71299;BME280;59083;47.974;21.722;2023-04-25T02:57:44;99218.50;;;12.40;100.00
71299;BME280;59083;47.974;21.722;2023-04-25T03:00:45;99216.87;;;12.39;100.00
71299;BME280;59083;47.974;21.722;2023-04-25T03:03:47;99213.59;;;12.37;100.00
71299;BME280;59083;47.974;21.722;2023-04-25T03:06:48;99205.38;;;12.38;100.00
71299;BME280;59083;47.974;21.722;2023-04-25T03:09:49;99213.59;;;12.37;100.00
71299;BME280;59083;47.974;21.722;2023-04-25T03:12:50;99212.44;;;12.33;100.00
71299;BME280;59083;47.974;21.722;2023-04-25T03:15:51;99218.38;;;12.35;100.00
71299;BME280;59083;47.974;21.722;2023-04-25T03:18:53;99210.72;;;12.38;100.00
71299;BME280;59083;47.974;21.722;2023-04-25T03:21:54;99207.59;;;12.41;100.00
71299;BME280;59083;47.974;21.722;2023-04-25T03:24:55;99209.44;;;12.41;100.00
71299;BME280;59083;47.974;21.722;2023-04-25T03:27:56;99207.81;;;12.40;100.00
71299;BME280;59083;47.974;21.722;2023-04-25T03:30:58;99205.16;;;12.40;100.00
71299;BME280;59083;47.974;21.722;2023-04-25T03:33:59;99208.63;;;12.40;100.00
71299;BME280;59083;47.974;21.722;2023-04-25T03:37:00;99204.09;;;12.41;100.00
71299;BME280;59083;47.974;21.722;2023-04-25T03:40:02;99200.84;;;12.39;100.00
71299;BME280;59083;47.974;21.722;2023-04-25T03:43:05;99201.28;;;12.36;100.00
71299;BME280;59083;47.974;21.722;2023-04-25T03:46:06;99204.41;;;12.33;100.00
71299;BME280;59083;47.974;21.722;2023-04-25T03:49:07;99198.03;;;12.34;100.00
71299;BME280;59083;47.974;21.722;2023-04-25T03:52:08;99189.44;;;12.32;100.00
71299;BME280;59083;47.974;21.722;2023-04-25T03:55:10;99193.13;;;12.31;100.00
71299;BME280;59083;47.974;21.722;2023-04-25T03:58:11;99199.19;;;12.38;100.00
71299;BME280;59083;47.974;21.722;2023-04-25T04:01:13;99197.12;;;12.40;100.00
71299;BME280;59083;47.974;21.722;2023-04-25T04:04:14;99193.41;;;12.41;100.00
71299;BME280;59083;47.974;21.722;2023-04-25T04:07:16;99197.12;;;12.40;100.00
71299;BME280;59083;47.974;21.722;2023-04-25T04:10:18;99209.06;;;12.37;100.00
71299;BME280;59083;47.974;21.722;2023-04-25T04:13:19;99197.56;;;12.37;100.00
71299;BME280;59083;47.974;21.722;2023-04-25T04:16:20;99200.97;;;12.44;100.00
71299;BME280;59083;47.974;21.722;2023-04-25T04:19:22;99197.38;;;12.50;100.00
71299;BME280;59083;47.974;21.722;2023-04-25T04:22:24;99195.56;;;12.62;100.00
71299;BME280;59083;47.974;21.722;2023-04-25T04:25:26;99191.56;;;12.53;100.00
71299;BME280;59083;47.974;21.722;2023-04-25T04:28:32;99195.56;;;12.62;100.00
71299;BME280;59083;47.974;21.722;2023-04-25T04:31:33;99190.19;;;12.62;100.00
71299;BME280;59083;47.974;21.722;2023-04-25T04:34:35;99194.63;;;12.68;100.00
71299;BME280;59083;47.974;21.722;2023-04-25T04:37:37;99185.31;;;12.71;100.00
71299;BME280;59083;47.974;21.722;2023-04-25T04:40:39;99187.19;;;12.70;100.00
71299;BME280;59083;47.974;21.722;2023-04-25T04:43:40;99190.31;;;12.67;100.00
71299;BME280;59083;47.974;21.722;2023-04-25T04:46:43;99196.72;;;12.66;100.00
71299;BME280;59083;47.974;21.722;2023-04-25T04:49:45;99200.41;;;12.65;100.00
71299;BME280;59083;47.974;21.722;2023-04-25T04:52:48;99188.56;;;12.61;100.00
71299;BME280;59083;47.974;21.722;2023-04-25T04:55:50;99194.97;;;12.72;100.00
71299;BME280;59083;47.974;21.722;2023-04-25T04:58:54;99195.91;;;12.77;100.00
71299;BME280;59083;47.974;21.722;2023-04-25T05:01:56;99194.88;;;12.78;100.00
71299;BME280;59083;47.974;21.722;2023-04-25T05:04:57;99193.94;;;12.84;100.00
71299;BME280;59083;47.974;21.722;2023-04-25T05:07:58;99189.88;;;12.94;100.00
71299;BME280;59083;47.974;21.722;2023-04-25T05:11:00;99195.34;;;12.99;100.00
71299;BME280;59083;47.974;21.722;2023-04-25T05:14:02;99185.81;;;13.03;100.00
71299;BME280;59083;47.974;21.722;2023-04-25T05:17:07;99186.41;;;13.16;100.00
71299;BME280;59083;47.974;21.722;2023-04-25T05:20:09;99185.47;;;13.22;100.00
71299;BME280;59083;47.974;21.722;2023-04-25T05:23:12;99188.75;;;13.24;100.00
71299;BME280;59083;47.974;21.722;2023-04-25T05:26:15;99180.00;;;13.29;100.00
71299;BME280;59083;47.974;21.722;2023-04-25T05:29:17;99183.63;;;13.35;100.00
71299;BME280;59083;47.974;21.722;2023-04-25T05:32:18;99189.78;;;13.35;100.00
71299;BME280;59083;47.974;21.722;2023-04-25T05:35:21;99183.97;;;13.38;100.00
71299;BME280;59083;47.974;21.722;2023-04-25T05:38:22;99178.63;;;13.38;100.00
71299;BME280;59083;47.974;21.722;2023-04-25T05:41:26;99180.72;;;13.36;100.00
71299;BME280;59083;47.974;21.722;2023-04-25T05:44:27;99180.78;;;13.53;100.00
71299;BME280;59083;47.974;21.722;2023-04-25T05:47:30;99175.03;;;13.73;100.00
71299;BME280;59083;47.974;21.722;2023-04-25T05:50:32;99183.34;;;13.99;100.00
71299;BME280;59083;47.974;21.722;2023-04-25T05:53:34;99175.97;;;14.35;100.00
71299;BME280;59083;47.974;21.722;2023-04-25T05:56:35;99166.53;;;14.32;100.00
71299;BME280;59083;47.974;21.722;2023-04-25T05:59:37;99191.78;;;14.36;100.00
71299;BME280;59083;47.974;21.722;2023-04-25T06:02:38;99177.78;;;14.18;100.00
71299;BME280;59083;47.974;21.722;2023-04-25T06:05:41;99184.94;;;14.12;100.00
71299;BME280;59083;47.974;21.722;2023-04-25T06:08:42;99177.03;;;14.05;100.00
71299;BME280;59083;47.974;21.722;2023-04-25T06:11:45;99173.81;;;14.20;100.00
71299;BME280;59083;47.974;21.722;2023-04-25T06:14:46;99177.22;;;14.44;100.00
71299;BME280;59083;47.974;21.722;2023-04-25T06:17:48;99172.16;;;14.81;100.00
71299;BME280;59083;47.974;21.722;2023-04-25T06:20:50;99169.47;;;15.14;100.00
71299;BME280;59083;47.974;21.722;2023-04-25T06:23:52;99168.09;;;15.12;100.00
71299;BME280;59083;47.974;21.722;2023-04-25T06:26:53;99170.37;;;15.03;100.00
71299;BME280;59083;47.974;21.722;2023-04-25T06:29:55;99171.03;;;14.94;100.00
71299;BME280;59083;47.974;21.722;2023-04-25T06:32:56;99175.09;;;14.96;100.00
71299;BME280;59083;47.974;21.722;2023-04-25T06:36:00;99145.66;;;15.01;100.00
71299;BME280;59083;47.974;21.722;2023-04-25T06:39:01;99169.56;;;15.19;98.40
71299;BME280;59083;47.974;21.722;2023-04-25T06:42:03;99163.81;;;15.32;99.43
71299;BME280;59083;47.974;21.722;2023-04-25T06:45:07;99169.87;;;15.45;98.47
71299;BME280;59083;47.974;21.722;2023-04-25T06:48:10;99167.69;;;15.42;96.80
71299;BME280;59083;47.974;21.722;2023-04-25T06:51:12;99164.75;;;15.60;94.61
71299;BME280;59083;47.974;21.722;2023-04-25T06:54:15;99166.59;;;15.81;96.94
71299;BME280;59083;47.974;21.722;2023-04-25T06:57:19;99177.84;;;15.78;93.88
71299;BME280;59083;47.974;21.722;2023-04-25T07:00:21;99165.34;;;15.67;94.42
71299;BME280;59083;47.974;21.722;2023-04-25T07:03:22;99152.22;;;15.49;95.82
71299;BME280;59083;47.974;21.722;2023-04-25T07:06:24;99160.81;;;15.51;96.71
71299;BME280;59083;47.974;21.722;2023-04-25T07:09:27;99157.59;;;15.49;97.24
71299;BME280;59083;47.974;21.722;2023-04-25T07:12:29;99162.81;;;15.39;96.39
71299;BME280;59083;47.974;21.722;2023-04-25T07:15:31;99159.75;;;15.30;95.77
71299;BME280;59083;47.974;21.722;2023-04-25T07:18:32;99167.00;;;15.29;95.80
71299;BME280;59083;47.974;21.722;2023-04-25T07:21:34;99159.88;;;15.40;97.52
71299;BME280;59083;47.974;21.722;2023-04-25T07:24:38;99162.16;;;15.48;96.79
71299;BME280;59083;47.974;21.722;2023-04-25T07:27:40;99163.41;;;15.62;94.80
71299;BME280;59083;47.974;21.722;2023-04-25T07:30:42;99157.50;;;15.82;94.83
71299;BME280;59083;47.974;21.722;2023-04-25T07:33:44;99165.50;;;15.77;94.19
71299;BME280;59083;47.974;21.722;2023-04-25T07:36:47;99158.50;;;16.03;93.06
71299;BME280;59083;47.974;21.722;2023-04-25T07:39:48;99160.34;;;15.97;91.20
71299;BME280;59083;47.974;21.722;2023-04-25T07:42:50;99157.59;;;15.92;92.21
71299;BME280;59083;47.974;21.722;2023-04-25T07:45:52;99154.47;;;15.79;91.63
71299;BME280;59083;47.974;21.722;2023-04-25T07:48:53;99161.59;;;15.68;91.63
71299;BME280;59083;47.974;21.722;2023-04-25T07:51:56;99160.81;;;15.51;91.86
71299;BME280;59083;47.974;21.722;2023-04-25T07:54:58;99158.25;;;15.39;92.10
71299;BME280;59083;47.974;21.722;2023-04-25T07:58:00;99156.63;;;15.38;92.94
71299;BME280;59083;47.974;21.722;2023-04-25T08:01:03;99152.75;;;15.29;91.88
71299;BME280;59083;47.974;21.722;2023-04-25T08:04:05;99155.31;;;15.19;93.54
71299;BME280;59083;47.974;21.722;2023-04-25T08:07:07;99158.41;;;15.11;93.41
71299;BME280;59083;47.974;21.722;2023-04-25T08:10:10;99153.63;;;15.13;93.75
71299;BME280;59083;47.974;21.722;2023-04-25T08:13:11;99126.28;;;15.16;92.88
71299;BME280;59083;47.974;21.722;2023-04-25T08:16:13;99141.31;;;15.55;91.01
71299;BME280;59083;47.974;21.722;2023-04-25T08:19:15;99138.59;;;15.99;88.81
71299;BME280;59083;47.974;21.722;2023-04-25T08:22:17;99142.47;;;16.40;88.32
71299;BME280;59083;47.974;21.722;2023-04-25T08:25:19;99136.78;;;16.36;83.86
71299;BME280;59083;47.974;21.722;2023-04-25T08:28:21;99141.66;;;16.12;84.54
71299;BME280;59083;47.974;21.722;2023-04-25T08:31:22;99137.72;;;15.93;85.55
71299;BME280;59083;47.974;21.722;2023-04-25T08:34:25;99145.81;;;15.72;87.20
71299;BME280;59083;47.974;21.722;2023-04-25T08:37:27;99142.28;;;15.49;87.98
71299;BME280;59083;47.974;21.722;2023-04-25T08:40:29;99146.09;;;15.32;89.44
71299;BME280;59083;47.974;21.722;2023-04-25T08:43:31;99156.97;;;15.03;92.89
71299;BME280;59083;47.974;21.722;2023-04-25T08:46:33;99155.44;;;14.74;98.22
71299;BME280;59083;47.974;21.722;2023-04-25T08:49:37;99165.19;;;14.46;100.00
71299;BME280;59083;47.974;21.722;2023-04-25T08:52:44;99166.62;;;14.09;100.00
71299;BME280;59083;47.974;21.722;2023-04-25T08:55:46;99164.28;;;13.84;100.00
71299;BME280;59083;47.974;21.722;2023-04-25T08:58:49;99169.47;;;13.62;100.00
71299;BME280;59083;47.974;21.722;2023-04-25T09:01:51;99165.44;;;13.48;100.00
71299;BME280;59083;47.974;21.722;2023-04-25T09:04:55;99175.78;;;13.45;100.00
71299;BME280;59083;47.974;21.722;2023-04-25T09:07:58;99176.72;;;13.39;100.00
71299;BME280;59083;47.974;21.722;2023-04-25T09:10:59;99180.72;;;13.36;100.00
71299;BME280;59083;47.974;21.722;2023-04-25T09:14:21;99177.22;;;13.36;100.00
71299;BME280;59083;47.974;21.722;2023-04-25T09:17:25;99188.16;;;13.34;100.00
71299;BME280;59083;47.974;21.722;2023-04-25T09:20:27;99200.97;;;13.32;100.00
71299;BME280;59083;47.974;21.722;2023-04-25T09:23:29;99224.34;;;13.37;100.00
71299;BME280;59083;47.974;21.722;2023-04-25T09:26:31;99228.25;;;12.99;100.00
71299;BME280;59083;47.974;21.722;2023-04-25T09:29:35;99222.13;;;12.16;100.00
71299;BME280;59083;47.974;21.722;2023-04-25T09:32:37;99235.78;;;12.08;100.00
71299;BME280;59083;47.974;21.722;2023-04-25T09:35:43;99228.44;;;11.73;100.00
71299;BME280;59083;47.974;21.722;2023-04-25T09:38:47;99227.25;;;11.63;100.00
71299;BME280;59083;47.974;21.722;2023-04-25T09:41:53;99230.31;;;11.48;100.00
71299;BME280;59083;47.974;21.722;2023-04-25T09:44:55;99232.88;;;10.93;100.00
71299;BME280;59083;47.974;21.722;2023-04-25T09:48:03;99233.47;;;10.95;100.00
71299;BME280;59083;47.974;21.722;2023-04-25T09:54:09;99213.16;;;10.94;100.00
71299;BME280;59083;47.974;21.722;2023-04-25T09:57:19;99211.72;;;10.98;100.00
71299;BME280;59083;47.974;21.722;2023-04-25T10:00:21;99216.00;;;10.99;100.00
71299;BME280;59083;47.974;21.722;2023-04-25T10:03:24;99225.31;;;10.90;100.00
71299;BME280;59083;47.974;21.722;2023-04-25T10:06:28;99223.25;;;10.67;100.00
71299;BME280;59083;47.974;21.722;2023-04-25T10:09:31;99227.16;;;10.65;100.00
71299;BME280;59083;47.974;21.722;2023-04-25T10:12:35;99227.34;;;10.70;100.00
71299;BME280;59083;47.974;21.722;2023-04-25T10:15:36;99219.47;;;10.82;100.00
71299;BME280;59083;47.974;21.722;2023-04-25T10:18:38;99225.66;;;10.75;100.00
71299;BME280;59083;47.974;21.722;2023-04-25T10:21:46;99228.47;;;10.81;100.00
71299;BME280;59083;47.974;21.722;2023-04-25T10:24:50;99215.81;;;10.76;100.00
71299;BME280;59083;47.974;21.722;2023-04-25T10:27:52;99223.63;;;10.71;100.00
71299;BME280;59083;47.974;21.722;2023-04-25T10:31:03;99220.84;;;10.84;100.00
71299;BME280;59083;47.974;21.722;2023-04-25T10:34:06;99232.81;;;11.00;100.00
71299;BME280;59083;47.974;21.722;2023-04-25T10:37:10;99221.78;;;10.96;100.00
71299;BME280;59083;47.974;21.722;2023-04-25T10:40:12;99229.94;;;11.01;100.00
71299;BME280;59083;47.974;21.722;2023-04-25T10:43:33;99225.47;;;10.95;100.00
71299;BME280;59083;47.974;21.722;2023-04-25T10:46:34;99217.41;;;10.77;100.00
71299;BME280;59083;47.974;21.722;2023-04-25T10:49:41;99211.34;;;10.70;100.00
71299;BME280;59083;47.974;21.722;2023-04-25T10:52:43;99199.06;;;10.69;100.00
71299;BME280;59083;47.974;21.722;2023-04-25T10:55:51;99193.87;;;10.74;100.00
71299;BME280;59083;47.974;21.722;2023-04-25T11:02:12;99199.09;;;10.62;100.00
71299;BME280;59083;47.974;21.722;2023-04-25T11:05:22;99203.59;;;10.62;100.00
71299;BME280;59083;47.974;21.722;2023-04-25T11:08:37;99190.91;;;10.64;100.00
71299;BME280;59083;47.974;21.722;2023-04-25T11:11:42;99190.44;;;10.67;100.00
71299;BME280;59083;47.974;21.722;2023-04-25T11:14:44;99196.44;;;10.87;100.00
71299;BME280;59083;47.974;21.722;2023-04-25T11:17:45;99207.56;;;10.77;100.00
71299;BME280;59083;47.974;21.722;2023-04-25T11:20:47;99207.16;;;10.81;100.00
71299;BME280;59083;47.974;21.722;2023-04-25T11:23:49;99201.88;;;10.74;100.00
71299;BME280;59083;47.974;21.722;2023-04-25T11:26:51;99211.00;;;11.09;100.00
71299;BME280;59083;47.974;21.722;2023-04-25T11:29:52;99189.19;;;10.94;100.00
71299;BME280;59083;47.974;21.722;2023-04-25T11:32:56;99207.41;;;10.97;100.00
71299;BME280;59083;47.974;21.722;2023-04-25T11:35:57;99214.84;;;10.89;100.00
71299;BME280;59083;47.974;21.722;2023-04-25T11:38:59;99205.34;;;10.99;100.00
71299;BME280;59083;47.974;21.722;2023-04-25T11:42:00;99195.22;;;11.08;100.00
71299;BME280;59083;47.974;21.722;2023-04-25T11:45:03;99207.66;;;11.14;100.00
71299;BME280;59083;47.974;21.722;2023-04-25T11:48:05;99208.78;;;10.82;100.00
71299;BME280;59083;47.974;21.722;2023-04-25T11:51:07;99199.81;;;10.76;100.00
71299;BME280;59083;47.974;21.722;2023-04-25T11:54:08;99199.63;;;10.96;100.00
71299;BME280;59083;47.974;21.722;2023-04-25T11:57:09;99204.16;;;10.95;100.00
71299;BME280;59083;47.974;21.722;2023-04-25T12:00:14;99209.47;;;10.95;100.00
71299;BME280;59083;47.974;21.722;2023-04-25T12:03:18;99206.28;;;10.87;100.00
71299;BME280;59083;47.974;21.722;2023-04-25T12:06:19;99205.25;;;10.63;100.00
71299;BME280;59083;47.974;21.722;2023-04-25T12:09:27;99209.63;;;10.82;100.00
71299;BME280;59083;47.974;21.722;2023-04-25T12:12:34;99218.69;;;10.74;100.00
71299;BME280;59083;47.974;21.722;2023-04-25T12:15:35;99215.34;;;10.79;100.00
71299;BME280;59083;47.974;21.722;2023-04-25T12:18:38;99230.47;;;10.85;100.00
71299;BME280;59083;47.974;21.722;2023-04-25T12:21:40;99238.22;;;10.93;100.00
71299;BME280;59083;47.974;21.722;2023-04-25T12:24:44;99239.66;;;10.89;100.00
71299;BME280;59083;47.974;21.722;2023-04-25T12:27:45;99239.63;;;10.96;100.00
71299;BME280;59083;47.974;21.722;2023-04-25T12:30:54;99243.56;;;10.93;100.00
71299;BME280;59083;47.974;21.722;2023-04-25T12:33:56;99248.91;;;11.11;100.00
71299;BME280;59083;47.974;21.722;2023-04-25T12:36:58;99246.13;;;11.25;100.00
71299;BME280;59083;47.974;21.722;2023-04-25T12:39:59;99242.44;;;11.26;100.00
71299;BME280;59083;47.974;21.722;2023-04-25T12:43:00;99245.72;;;11.28;100.00
71299;BME280;59083;47.974;21.722;2023-04-25T12:46:01;99253.91;;;11.26;100.00
71299;BME280;59083;47.974;21.722;2023-04-25T12:49:03;99245.87;;;11.33;100.00
71299;BME280;59083;47.974;21.722;2023-04-25T12:52:06;99250.28;;;11.21;100.00
71299;BME280;59083;47.974;21.722;2023-04-25T12:55:08;99239.47;;;11.34;100.00
71299;BME280;59083;47.974;21.722;2023-04-25T12:58:09;99220.69;;;10.79;100.00
71299;BME280;59083;47.974;21.722;2023-04-25T13:01:11;99244.28;;;11.00;100.00
71299;BME280;59083;47.974;21.722;2023-04-25T13:04:13;99245.94;;;11.01;100.00
71299;BME280;59083;47.974;21.722;2023-04-25T13:07:14;99248.53;;;11.33;100.00
71299;BME280;59083;47.974;21.722;2023-04-25T13:10:16;99256.38;;;11.28;100.00
71299;BME280;59083;47.974;21.722;2023-04-25T13:13:18;99252.22;;;11.32;100.00
71299;BME280;59083;47.974;21.722;2023-04-25T13:16:20;99261.81;;;11.14;100.00
71299;BME280;59083;47.974;21.722;2023-04-25T13:19:22;99260.22;;;11.07;100.00
71299;BME280;59083;47.974;21.722;2023-04-25T13:22:23;99266.59;;;10.81;100.00
71299;BME280;59083;47.974;21.722;2023-04-25T13:25:25;99267.88;;;10.72;100.00
71299;BME280;59083;47.974;21.722;2023-04-25T13:28:26;99265.38;;;10.77;100.00
71299;BME280;59083;47.974;21.722;2023-04-25T13:31:27;99247.22;;;10.67;100.00
71299;BME280;59083;47.974;21.722;2023-04-25T13:34:29;99251.91;;;10.72;100.00
71299;BME280;59083;47.974;21.722;2023-04-25T13:37:30;99252.59;;;10.61;100.00
71299;BME280;59083;47.974;21.722;2023-04-25T13:40:33;99254.56;;;10.41;100.00
71299;BME280;59083;47.974;21.722;2023-04-25T13:43:34;99246.22;;;10.62;100.00
71299;BME280;59083;47.974;21.722;2023-04-25T13:46:36;99238.31;;;10.80;100.00
71299;BME280;59083;47.974;21.722;2023-04-25T13:49:38;99238.16;;;10.44;97.98
71299;BME280;59083;47.974;21.722;2023-04-25T13:52:39;99245.34;;;10.74;98.11
71299;BME280;59083;47.974;21.722;2023-04-25T13:55:41;99249.84;;;10.74;100.00
71299;BME280;59083;47.974;21.722;2023-04-25T13:58:42;99249.09;;;10.60;99.29
71299;BME280;59083;47.974;21.722;2023-04-25T14:01:43;99255.66;;;10.89;98.78
71299;BME280;59083;47.974;21.722;2023-04-25T14:04:45;99245.59;;;10.91;99.99
71299;BME280;59083;47.974;21.722;2023-04-25T14:07:46;99252.78;;;11.15;97.84
71299;BME280;59083;47.974;21.722;2023-04-25T14:10:47;99253.06;;;11.07;96.43
71299;BME280;59083;47.974;21.722;2023-04-25T14:13:48;99253.09;;;11.26;97.22
71299;BME280;59083;47.974;21.722;2023-04-25T14:16:51;99257.56;;;11.32;96.78
71299;BME280;59083;47.974;21.722;2023-04-25T14:19:52;99259.09;;;11.21;95.48
71299;BME280;59083;47.974;21.722;2023-04-25T14:22:53;99253.53;;;11.23;96.79
71299;BME280;59083;47.974;21.722;2023-04-25T14:25:56;99265.50;;;11.13;96.56
71299;BME280;59083;47.974;21.722;2023-04-25T14:28:58;99260.84;;;11.09;95.87
71299;BME280;59083;47.974;21.722;2023-04-25T14:31:59;99262.84;;;11.13;97.09
71299;BME280;59083;47.974;21.722;2023-04-25T14:35:01;99240.38;;;10.78;96.92
71299;BME280;59083;47.974;21.722;2023-04-25T14:38:02;99264.44;;;10.96;97.52
71299;BME280;59083;47.974;21.722;2023-04-25T14:41:03;99273.03;;;10.98;97.73
71299;BME280;59083;47.974;21.722;2023-04-25T14:44:04;99266.97;;;10.85;96.71
71299;BME280;59083;47.974;21.722;2023-04-25T14:47:06;99270.66;;;10.84;96.28
71299;BME280;59083;47.974;21.722;2023-04-25T14:50:07;99279.41;;;10.66;97.63
71299;BME280;59083;47.974;21.722;2023-04-25T14:53:09;99285.50;;;10.73;98.42
71299;BME280;59083;47.974;21.722;2023-04-25T14:56:10;99277.56;;;10.66;97.20
71299;BME280;59083;47.974;21.722;2023-04-25T14:59:12;99288.53;;;10.52;98.12
71299;BME280;59083;47.974;21.722;2023-04-25T15:02:13;99293.22;;;10.50;99.35
71299;BME280;59083;47.974;21.722;2023-04-25T15:05:15;99300.72;;;10.66;98.68
71299;BME280;59083;47.974;21.722;2023-04-25T15:08:16;99307.69;;;10.67;98.76
71299;BME280;59083;47.974;21.722;2023-04-25T15:11:19;99307.19;;;10.76;99.54
71299;BME280;59083;47.974;21.722;2023-04-25T15:14:21;99306.91;;;10.60;99.17
71299;BME280;59083;47.974;21.722;2023-04-25T15:17:22;99302.84;;;10.57;99.78
71299;BME280;59083;47.974;21.722;2023-04-25T15:20:24;99307.94;;;10.59;99.19
71299;BME280;59083;47.974;21.722;2023-04-25T15:23:26;99307.75;;;10.54;100.00
71299;BME280;59083;47.974;21.722;2023-04-25T15:26:27;99305.88;;;10.61;100.00
71299;BME280;59083;47.974;21.722;2023-04-25T15:29:29;99308.97;;;10.58;100.00
71299;BME280;59083;47.974;21.722;2023-04-25T15:32:31;99313.50;;;10.51;100.00
71299;BME280;59083;47.974;21.722;2023-04-25T15:35:32;99307.75;;;10.54;100.00
71299;BME280;59083;47.974;21.722;2023-04-25T15:38:33;99306.56;;;10.50;100.00
71299;BME280;59083;47.974;21.722;2023-04-25T15:41:35;99312.31;;;10.47;100.00
71299;BME280;59083;47.974;21.722;2023-04-25T15:44:37;99318.50;;;10.41;100.00
71299;BME280;59083;47.974;21.722;2023-04-25T15:47:38;99311.28;;;10.48;100.00
71299;BME280;59083;47.974;21.722;2023-04-25T15:50:40;99308.37;;;10.56;100.00